Time;durP1;ratioP1;P1;durP2;ratioP2;P2;SDS_P1;SDS_P2;PMS_P1;PMS_P2;Temp;Humidity;BMP_temperature;BMP_pressure;BME280_temperature;BME280_humidity;BME280_pressure;Samples;Min_cycle;Max_cycle;Signal;HPM_P1;HPM_P2
2023/06/16 00:01:14;;;;;;;0.47;0.47;;;15.40;99.90;;;;;;5052787;28;20193;-69
2023/06/16 00:03:41;;;;;;;0.70;0.70;;;15.30;99.90;;;;;;5051962;28;20197;-69
2023/06/16 00:06:13;;;;;;;0.85;0.85;;;15.20;99.90;;;;;;5032507;28;20238;-68
2023/06/16 00:08:45;;;;;;;1.40;1.13;;;15.10;99.90;;;;;;5020039;28;20661;-69
2023/06/16 00:11:12;;;;;;;1.42;1.33;;;15.00;99.90;;;;;;5032891;28;20202;-67
2023/06/16 00:13:38;;;;;;;0.70;0.70;;;15.10;99.90;;;;;;5032452;28;20197;-68
2023/06/16 00:16:04;;;;;;;0.55;0.55;;;15.30;99.90;;;;;;5032591;28;20198;-68
2023/06/16 00:18:31;;;;;;;3.13;1.40;;;15.50;99.90;;;;;;5014542;28;20220;-67
2023/06/16 00:21:00;;;;;;;0.70;0.70;;;15.70;99.90;;;;;;5032141;28;20194;-67
2023/06/16 00:23:26;;;;;;;0.85;0.85;;;15.50;99.90;;;;;;5014475;28;20198;-68
2023/06/16 00:25:52;;;;;;;1.40;1.23;;;15.40;99.90;;;;;;5031640;28;20301;-68
2023/06/16 00:28:19;;;;;;;1.23;1.13;;;15.10;99.90;;;;;;5032217;28;20699;-68
2023/06/16 00:30:45;;;;;;;0.60;0.60;;;14.90;99.90;;;;;;5032604;28;20209;-68
2023/06/16 00:33:12;;;;;;;0.40;0.40;;;14.90;99.90;;;;;;5031923;28;20265;-67
2023/06/16 00:35:39;;;;;;;0.88;0.85;;;14.90;99.90;;;;;;5031550;28;20198;-68
2023/06/16 00:38:05;;;;;;;1.17;0.80;;;15.10;99.90;;;;;;5031751;28;20253;-69
2023/06/16 00:40:31;;;;;;;0.75;0.75;;;15.10;99.90;;;;;;5031845;28;20226;-69
2023/06/16 00:42:58;;;;;;;0.93;0.93;;;15.20;99.90;;;;;;5031894;28;20580;-69
2023/06/16 00:45:24;;;;;;;1.17;1.08;;;15.40;99.90;;;;;;5031666;28;20289;-69
2023/06/16 00:47:51;;;;;;;3.15;1.52;;;15.50;99.90;;;;;;5031963;28;20198;-69
2023/06/16 00:50:18;;;;;;;2.40;1.58;;;15.50;99.90;;;;;;5031743;28;20190;-68
2023/06/16 00:52:44;;;;;;;0.60;0.60;;;15.50;99.90;;;;;;5032135;28;20769;-67
2023/06/16 00:55:11;;;;;;;0.73;0.73;;;15.30;99.90;;;;;;5031909;28;20248;-70
2023/06/16 00:57:40;;;;;;;1.17;1.08;;;15.00;99.90;;;;;;5031537;28;20201;-69
2023/06/16 01:00:11;;;;;;;1.45;1.35;;;14.80;99.90;;;;;;5031750;28;20621;-68
2023/06/16 01:02:38;;;;;;;1.10;1.00;;;14.50;99.90;;;;;;5023440;23;20238;-78
2023/06/16 01:05:07;;;;;;;0.68;0.68;;;14.30;99.90;;;;;;5000198;28;20247;-78
2023/06/16 01:07:59;;;;;;;1.08;0.98;;;14.10;99.90;;;;;;5011207;28;20194;-78
2023/06/16 01:10:41;;;;;;;0.85;0.70;;;14.20;99.90;;;;;;5011277;28;20187;-78
2023/06/16 01:13:17;;;;;;;0.50;0.50;;;14.30;99.90;;;;;;4990273;28;20209;-78
2023/06/16 01:15:45;;;;;;;0.70;0.68;;;14.30;99.90;;;;;;4991866;28;20210;-77
2023/06/16 01:18:17;;;;;;;1.05;0.93;;;14.40;99.90;;;;;;4991729;28;20207;-77
2023/06/16 01:21:03;;;;;;;0.50;0.50;;;14.30;99.90;;;;;;4991366;28;20222;-77
2023/06/16 01:23:58;;;;;;;0.43;0.43;;;14.20;99.90;;;;;;4991246;28;20207;-79
2023/06/16 01:26:27;;;;;;;0.63;0.63;;;14.20;99.90;;;;;;4989925;28;20682;-77
2023/06/16 01:28:54;;;;;;;0.85;0.80;;;14.20;99.90;;;;;;4991442;28;20191;-79
2023/06/16 01:31:21;;;;;;;1.23;0.98;;;14.20;99.90;;;;;;4987326;28;20244;-78
2023/06/16 01:33:47;;;;;;;0.57;0.40;;;14.20;99.90;;;;;;4993321;28;20230;-78
2023/06/16 01:36:15;;;;;;;0.40;0.40;;;14.20;99.90;;;;;;5011074;28;20282;-78
2023/06/16 01:38:42;;;;;;;0.52;0.52;;;14.30;99.90;;;;;;5009101;28;20237;-78
2023/06/16 01:41:10;;;;;;;0.70;0.70;;;14.40;99.90;;;;;;5010967;28;20194;-77
2023/06/16 01:43:36;;;;;;;0.70;0.70;;;14.30;99.90;;;;;;5010449;28;20598;-78
2023/06/16 01:46:02;;;;;;;0.90;0.73;;;14.10;99.90;;;;;;4992618;28;20210;-78
2023/06/16 01:48:29;;;;;;;0.52;0.52;;;14.30;99.90;;;;;;5010701;28;20214;-77
2023/06/16 01:50:55;;;;;;;1.33;0.90;;;14.30;99.90;;;;;;5009087;28;20199;-78
2023/06/16 01:53:21;;;;;;;2.38;1.33;;;14.20;99.90;;;;;;4992337;28;20556;-79
2023/06/16 01:55:51;;;;;;;1.50;0.90;;;14.10;99.90;;;;;;5010802;28;20332;-79
2023/06/16 01:58:19;;;;;;;0.47;0.47;;;14.10;99.90;;;;;;5010719;28;20198;-79
2023/06/16 02:00:54;;;;;;;1.00;0.77;;;14.20;99.90;;;;;;4993642;28;20207;-79
2023/06/16 02:03:28;;;;;;;0.98;0.88;;;14.10;99.90;;;;;;5028612;28;20233;-78
2023/06/16 02:05:57;;;;;;;1.15;0.85;;;14.30;99.90;;;;;;4992659;28;20310;-78
2023/06/16 02:08:27;;;;;;;1.00;1.00;;;14.10;99.90;;;;;;5010403;28;20210;-78
2023/06/16 02:10:54;;;;;;;1.08;0.98;;;14.00;99.90;;;;;;5010506;28;20187;-79
2023/06/16 02:13:20;;;;;;;0.80;0.80;;;14.10;99.90;;;;;;4992590;28;20219;-79
2023/06/16 02:15:47;;;;;;;0.70;0.70;;;13.90;99.90;;;;;;5010508;28;20195;-79
2023/06/16 02:18:12;;;;;;;1.08;1.02;;;14.00;99.90;;;;;;5009232;28;20199;-80
2023/06/16 02:20:39;;;;;;;0.47;0.45;;;14.00;99.90;;;;;;5010212;28;20260;-79
2023/06/16 02:23:05;;;;;;;0.63;0.63;;;14.10;99.90;;;;;;4992765;28;20667;-78
2023/06/16 02:25:31;;;;;;;2.25;1.35;;;13.90;99.90;;;;;;5010126;28;20281;-79
2023/06/16 02:27:57;;;;;;;0.47;0.47;;;14.00;99.90;;;;;;4992674;28;20222;-78
2023/06/16 02:30:23;;;;;;;0.60;0.60;;;14.30;99.90;;;;;;5010323;28;20229;-79
2023/06/16 02:32:49;;;;;;;1.63;0.98;;;14.50;99.90;;;;;;4992742;28;20199;-79
2023/06/16 02:35:15;;;;;;;0.90;0.90;;;14.50;99.90;;;;;;5009165;28;20697;-78
2023/06/16 02:37:42;;;;;;;0.65;0.65;;;14.50;99.90;;;;;;5010113;28;20195;-79
2023/06/16 02:40:08;;;;;;;0.40;0.40;;;14.60;99.90;;;;;;5005778;28;20705;-79
2023/06/16 02:42:34;;;;;;;1.70;0.90;;;14.50;99.90;;;;;;5011895;28;20736;-78
2023/06/16 02:45:00;;;;;;;0.82;0.82;;;14.50;99.90;;;;;;5011933;28;20217;-78
2023/06/16 02:47:26;;;;;;;0.77;0.60;;;14.50;99.90;;;;;;5012095;28;20199;-78
2023/06/16 02:49:54;;;;;;;1.55;0.77;;;14.60;99.90;;;;;;5029862;28;20197;-78
2023/06/16 02:52:21;;;;;;;0.68;0.68;;;14.60;99.90;;;;;;5008192;28;20187;-78
2023/06/16 02:54:46;;;;;;;1.50;1.10;;;14.60;99.90;;;;;;5008876;28;20207;-78
2023/06/16 02:57:12;;;;;;;2.47;1.75;;;14.50;99.90;;;;;;4992639;28;20681;-78
2023/06/16 02:59:38;;;;;;;0.52;0.52;;;14.70;99.90;;;;;;4990732;28;20242;-78
2023/06/16 03:02:04;;;;;;;0.45;0.45;;;14.90;99.90;;;;;;4995915;28;20238;-78
2023/06/16 03:04:30;;;;;;;0.73;0.70;;;15.10;99.90;;;;;;5014314;28;20210;-78
2023/06/16 03:06:57;;;;;;;0.77;0.77;;;15.20;99.90;;;;;;4995851;28;20195;-78
2023/06/16 03:09:24;;;;;;;0.55;0.55;;;15.20;99.90;;;;;;5012149;28;20261;-78
2023/06/16 03:11:50;;;;;;;1.25;0.80;;;15.30;99.90;;;;;;4995731;28;20210;-78
2023/06/16 03:14:16;;;;;;;0.65;0.60;;;15.30;99.90;;;;;;5012089;28;20198;-78
2023/06/16 03:16:42;;;;;;;0.60;0.57;;;15.30;99.90;;;;;;5013248;28;20203;-79
2023/06/16 03:19:08;;;;;;;0.43;0.43;;;15.40;99.90;;;;;;5013455;28;20244;-79
2023/06/16 03:21:34;;;;;;;1.02;1.02;;;15.40;99.90;;;;;;5013129;28;20608;-79
2023/06/16 03:24:00;;;;;;;1.13;0.77;;;15.50;99.90;;;;;;4995459;28;20292;-79
2023/06/16 03:26:26;;;;;;;0.40;0.40;;;15.50;99.90;;;;;;5012944;28;20234;-79
2023/06/16 03:28:52;;;;;;;6.00;0.70;;;15.40;99.90;;;;;;5013108;28;20214;-79
2023/06/16 03:31:17;;;;;;;1.83;0.82;;;15.50;99.90;;;;;;5012946;28;20264;-79
2023/06/16 03:33:43;;;;;;;0.75;0.75;;;15.60;99.90;;;;;;4995501;28;20194;-79
2023/06/16 03:36:09;;;;;;;1.13;1.02;;;15.70;99.90;;;;;;4995500;28;20207;-78
2023/06/16 03:38:35;;;;;;;1.05;0.90;;;15.90;99.90;;;;;;5012693;28;20217;-79
2023/06/16 03:41:01;;;;;;;4.05;1.17;;;16.10;99.90;;;;;;4995338;28;20803;-79
2023/06/16 03:43:26;;;;;;;1.88;1.30;;;16.30;99.90;;;;;;4995089;28;20199;-79
2023/06/16 03:45:52;;;;;;;1.27;0.73;;;16.50;99.90;;;;;;5012424;28;20261;-79
2023/06/16 03:48:18;;;;;;;2.58;1.95;;;16.60;99.90;;;;;;5012638;28;20192;-79
2023/06/16 03:50:43;;;;;;;0.90;0.90;;;16.70;99.90;;;;;;5012702;28;20237;-79
2023/06/16 03:53:09;;;;;;;1.02;0.77;;;16.90;99.90;;;;;;4994156;28;20557;-79
2023/06/16 03:55:35;;;;;;;0.82;0.82;;;16.90;99.90;;;;;;5012713;28;20230;-79
2023/06/16 03:58:01;;;;;;;1.15;1.05;;;17.00;99.90;;;;;;4976303;28;20243;-78
2023/06/16 04:00:27;;;;;;;0.75;0.63;;;17.20;99.90;;;;;;4975371;28;20203;-79
2023/06/16 04:02:52;;;;;;;0.80;0.80;;;17.20;99.90;;;;;;4974797;28;20246;-78
2023/06/16 04:05:19;;;;;;;1.27;0.90;;;17.30;99.90;;;;;;4975188;28;20203;-79
2023/06/16 04:07:45;;;;;;;1.40;1.05;;;17.40;99.90;;;;;;4975339;28;20196;-79
2023/06/16 04:10:11;;;;;;;2.38;1.23;;;17.50;99.90;;;;;;4991340;28;20650;-79
2023/06/16 04:12:37;;;;;;;1.13;0.82;;;17.50;99.90;;;;;;5007585;28;20563;-79
2023/06/16 04:15:04;;;;;;;1.30;0.77;;;17.60;99.90;;;;;;5010728;28;20203;-79
2023/06/16 04:17:30;;;;;;;0.77;0.77;;;17.50;99.90;;;;;;4994352;28;20203;-79
2023/06/16 04:19:57;;;;;;;1.13;1.02;;;17.50;99.90;;;;;;5010749;28;20209;-79
2023/06/16 04:22:22;;;;;;;1.38;1.25;;;17.50;99.90;;;;;;5011816;28;20729;-78
2023/06/16 04:24:49;;;;;;;1.85;1.13;;;17.60;99.90;;;;;;4994121;28;20298;-79
2023/06/16 04:27:17;;;;;;;0.50;0.50;;;17.60;99.90;;;;;;4994768;28;20219;-78
2023/06/16 04:29:42;;;;;;;1.95;1.25;;;17.60;99.90;;;;;;4994428;28;20199;-78
2023/06/16 04:32:11;;;;;;;0.93;0.88;;;17.60;99.90;;;;;;4994101;28;20605;-78
2023/06/16 04:34:40;;;;;;;0.63;0.50;;;17.70;99.90;;;;;;4994189;28;20199;-79
2023/06/16 04:37:06;;;;;;;0.75;0.75;;;17.80;99.90;;;;;;4994339;28;20206;-79
2023/06/16 04:39:32;;;;;;;1.23;1.00;;;18.00;99.90;;;;;;4993972;28;20568;-78
2023/06/16 04:41:58;;;;;;;1.48;0.90;;;18.00;99.90;;;;;;4994184;28;20199;-78
2023/06/16 04:44:23;;;;;;;1.08;0.88;;;17.90;99.90;;;;;;5011500;28;20191;-79
2023/06/16 04:46:49;;;;;;;0.75;0.75;;;18.00;99.90;;;;;;5011888;28;20215;-78
2023/06/16 04:49:15;;;;;;;1.95;1.50;;;17.80;99.90;;;;;;5011795;28;20249;-80
2023/06/16 04:51:41;;;;;;;0.77;0.77;;;17.70;99.90;;;;;;5011533;28;20264;-78
2023/06/16 04:54:06;;;;;;;1.48;1.00;;;17.60;99.90;;;;;;4993854;28;20290;-78
2023/06/16 04:56:32;;;;;;;0.73;0.73;;;17.40;99.90;;;;;;4974561;28;20191;-79
2023/06/16 04:58:58;;;;;;;1.08;1.02;;;17.30;99.90;;;;;;4974439;28;20249;-79
2023/06/16 05:01:26;;;;;;;0.45;0.45;;;17.30;99.90;;;;;;4990205;28;20208;-79
2023/06/16 05:03:53;;;;;;;1.23;1.13;;;17.30;99.90;;;;;;4973930;28;20690;-79
2023/06/16 05:06:18;;;;;;;0.70;0.70;;;17.30;99.90;;;;;;4991630;28;20211;-79
2023/06/16 05:08:44;;;;;;;2.08;1.08;;;17.30;99.90;;;;;;4991740;28;20199;-79
2023/06/16 05:11:10;;;;;;;1.17;0.55;;;17.30;99.90;;;;;;4993817;28;20202;-79
2023/06/16 05:13:36;;;;;;;2.15;0.85;;;17.50;99.90;;;;;;4993565;28;20199;-79
2023/06/16 05:16:01;;;;;;;1.55;1.20;;;17.80;99.90;;;;;;5011097;28;20209;-79
2023/06/16 05:18:27;;;;;;;0.60;0.60;;;18.10;99.90;;;;;;5010955;28;20737;-79
2023/06/16 05:20:53;;;;;;;0.90;0.82;;;18.40;99.90;;;;;;5011194;28;20201;-79
2023/06/16 05:23:18;;;;;;;7.03;1.33;;;18.70;99.90;;;;;;5010945;28;20194;-79
2023/06/16 05:25:45;;;;;;;0.57;0.57;;;19.00;99.90;;;;;;5009993;28;20298;-78
2023/06/16 05:28:11;;;;;;;0.82;0.82;;;19.20;99.90;;;;;;5009624;28;20281;-78
2023/06/16 05:30:37;;;;;;;1.02;0.93;;;19.50;99.90;;;;;;5010842;28;20195;-78
2023/06/16 05:33:02;;;;;;;0.98;0.90;;;19.70;99.90;;;;;;5009677;28;20229;-79
2023/06/16 05:35:28;;;;;;;0.80;0.80;;;19.70;99.90;;;;;;5010704;28;20198;-78
2023/06/16 05:37:54;;;;;;;2.60;1.25;;;19.70;99.90;;;;;;5009589;28;20230;-78
2023/06/16 05:40:20;;;;;;;1.17;0.98;;;19.80;99.90;;;;;;5009460;28;20195;-79
2023/06/16 05:42:45;;;;;;;1.10;1.00;;;20.00;99.90;;;;;;4993013;28;20685;-78
2023/06/16 05:45:11;;;;;;;0.52;0.52;;;20.10;99.90;;;;;;5010829;28;20299;-79
2023/06/16 05:47:37;;;;;;;1.92;0.95;;;20.20;99.90;;;;;;4993305;28;20234;-79
2023/06/16 05:50:02;;;;;;;1.13;0.77;;;20.10;99.90;;;;;;4992916;28;20277;-78
2023/06/16 05:52:30;;;;;;;2.17;1.20;;;19.90;99.90;;;;;;4989375;28;20200;-79
2023/06/16 05:54:57;;;;;;;2.20;0.93;;;20.00;99.90;;;;;;4990592;28;20591;-78
2023/06/16 05:57:24;;;;;;;1.05;0.80;;;19.90;99.90;;;;;;5009162;28;20218;-79
2023/06/16 05:59:50;;;;;;;1.10;0.90;;;19.90;99.90;;;;;;4993089;28;20293;-79
2023/06/16 06:02:17;;;;;;;1.73;1.45;;;19.70;99.90;;;;;;5010285;28;20574;-79
2023/06/16 06:04:42;;;;;;;0.80;0.80;;;19.70;99.90;;;;;;4992584;28;20206;-79
2023/06/16 06:07:08;;;;;;;1.55;0.80;;;19.80;99.90;;;;;;4992807;28;20568;-78
2023/06/16 06:09:34;;;;;;;0.80;0.80;;;19.90;99.90;;;;;;5010440;28;20206;-79
2023/06/16 06:12:00;;;;;;;1.90;0.90;;;20.20;99.90;;;;;;5008982;28;20202;-78
2023/06/16 06:14:26;;;;;;;2.55;1.38;;;20.50;99.90;;;;;;5009011;28;20203;-79
2023/06/16 06:16:51;;;;;;;0.90;0.90;;;20.60;99.90;;;;;;5009351;28;20225;-79
2023/06/16 06:19:17;;;;;;;1.25;0.90;;;20.60;99.90;;;;;;5009157;28;20199;-79
2023/06/16 06:21:43;;;;;;;1.00;0.90;;;20.60;99.90;;;;;;5008975;28;20294;-79
2023/06/16 06:24:09;;;;;;;0.77;0.73;;;20.40;99.90;;;;;;4986344;28;20238;-78
2023/06/16 06:26:38;;;;;;;0.77;0.77;;;20.40;99.90;;;;;;4990643;28;20235;-79
2023/06/16 06:29:04;;;;;;;2.40;1.17;;;20.40;99.90;;;;;;4990537;28;20197;-78
2023/06/16 06:31:30;;;;;;;1.42;1.33;;;20.30;99.90;;;;;;4990671;28;20275;-78
2023/06/16 06:33:56;;;;;;;0.60;0.60;;;20.30;99.90;;;;;;4989679;28;20191;-81
2023/06/16 06:36:23;;;;;;;0.95;0.93;;;20.20;99.90;;;;;;4989974;28;20613;-79
2023/06/16 06:38:49;;;;;;;0.82;0.65;;;20.20;99.90;;;;;;4994639;28;20270;-79
2023/06/16 06:41:16;;;;;;;1.52;1.05;;;20.10;99.90;;;;;;4994437;28;20286;-80
2023/06/16 06:43:42;;;;;;;0.88;0.88;;;20.10;99.90;;;;;;4976636;28;20670;-79
2023/06/16 06:46:07;;;;;;;0.57;0.57;;;20.00;99.90;;;;;;5007683;28;20207;-79
2023/06/16 06:48:33;;;;;;;0.38;0.38;;;20.10;99.90;;;;;;5013791;28;20657;-80
2023/06/16 06:50:59;;;;;;;1.42;0.98;;;20.20;99.90;;;;;;4996138;28;20203;-78
2023/06/16 06:53:25;;;;;;;1.33;1.05;;;20.50;99.90;;;;;;4995790;28;20684;-78
2023/06/16 06:55:51;;;;;;;1.50;1.20;;;20.80;99.90;;;;;;4996046;28;20230;-77
2023/06/16 06:58:17;;;;;;;1.05;0.85;;;21.00;99.90;;;;;;5013635;28;20195;-77
2023/06/16 07:00:42;;;;;;;1.00;0.93;;;21.30;99.90;;;;;;4995952;28;20874;-79
2023/06/16 07:03:08;;;;;;;0.80;0.80;;;21.50;99.90;;;;;;4992454;28;20668;-78
2023/06/16 07:05:34;;;;;;;1.33;1.08;;;21.60;99.90;;;;;;5012681;28;20711;-77
2023/06/16 07:08:03;;;;;;;0.70;0.70;;;21.90;99.90;;;;;;4995655;28;20195;-77
2023/06/16 07:10:32;;;;;;;0.90;0.90;;;22.10;99.90;;;;;;5013398;28;20710;-77
2023/06/16 07:12:58;;;;;;;2.38;1.80;;;22.40;99.90;;;;;;5013495;28;20195;-78
2023/06/16 07:15:24;;;;;;;1.77;1.10;;;22.70;99.90;;;;;;5013303;28;20574;-78
2023/06/16 07:17:51;;;;;;;3.22;1.05;;;22.70;99.90;;;;;;5013674;28;20769;-78
2023/06/16 07:20:17;;;;;;;3.03;1.67;;;22.90;99.90;;;;;;5013289;28;20728;-78
2023/06/16 07:22:45;;;;;;;1.80;1.38;;;23.20;99.90;;;;;;4995126;28;20207;-78
2023/06/16 07:25:11;;;;;;;2.35;1.27;;;23.70;99.90;;;;;;5013160;28;20569;-78
2023/06/16 07:27:37;;;;;;;1.10;0.90;;;24.20;99.90;;;;;;5013133;28;20800;-78
2023/06/16 07:30:07;;;;;;;1.63;1.50;;;24.50;99.90;;;;;;5013059;28;20277;-79
2023/06/16 07:32:33;;;;;;;0.75;0.75;;;24.90;99.90;;;;;;5011602;28;20195;-78
2023/06/16 07:34:59;;;;;;;1.70;1.23;;;24.90;99.90;;;;;;5013114;28;20558;-77
2023/06/16 07:37:25;;;;;;;0.55;0.55;;;24.90;99.90;;;;;;5012734;28;20191;-79
2023/06/16 07:39:51;;;;;;;1.88;1.15;;;24.80;99.90;;;;;;5012954;28;20203;-78
2023/06/16 07:42:16;;;;;;;1.00;0.85;;;24.70;99.90;;;;;;5008228;28;20698;-78
2023/06/16 07:44:42;;;;;;;0.50;0.50;;;24.50;99.90;;;;;;4992841;28;20199;-78
2023/06/16 07:47:08;;;;;;;2.72;1.13;;;24.40;99.90;;;;;;4993267;28;20275;-78
2023/06/16 07:49:34;;;;;;;0.88;0.70;;;24.70;99.90;;;;;;4992168;28;20191;-80
2023/06/16 07:52:00;;;;;;;1.15;0.88;;;25.20;99.90;;;;;;4975907;28;20537;-80
2023/06/16 07:54:25;;;;;;;1.20;0.95;;;25.60;98.60;;;;;;4994890;28;20202;-80
2023/06/16 07:56:51;;;;;;;0.60;0.60;;;25.60;98.20;;;;;;4995132;28;20697;-80
2023/06/16 07:59:17;;;;;;;1.85;1.08;;;25.60;97.40;;;;;;5012519;28;20227;-80
2023/06/16 08:01:44;;;;;;;0.52;0.52;;;25.50;93.50;;;;;;4994786;28;20202;-80
2023/06/16 08:04:11;;;;;;;1.75;1.05;;;25.40;95.00;;;;;;4994532;28;20218;-79
2023/06/16 08:06:36;;;;;;;0.65;0.65;;;25.60;95.20;;;;;;5012016;28;20665;-78
2023/06/16 08:09:03;;;;;;;1.20;0.77;;;25.90;95.10;;;;;;5012262;28;20195;-78
2023/06/16 08:11:29;;;;;;;1.30;1.20;;;26.40;94.60;;;;;;5012246;28;20218;-78
2023/06/16 08:13:55;;;;;;;1.65;1.25;;;26.80;92.00;;;;;;5012469;28;20248;-77
2023/06/16 08:16:20;;;;;;;0.45;0.43;;;27.00;91.90;;;;;;5011993;28;20908;-78
2023/06/16 08:18:46;;;;;;;0.63;0.63;;;27.10;91.40;;;;;;5012146;28;20210;-78
2023/06/16 08:21:12;;;;;;;0.63;0.63;;;27.50;91.60;;;;;;5012197;28;20209;-77
2023/06/16 08:23:37;;;;;;;1.15;0.77;;;27.80;85.70;;;;;;4994038;28;20701;-78
2023/06/16 08:26:05;;;;;;;1.65;1.23;;;27.90;80.30;;;;;;5010682;28;20215;-78
2023/06/16 08:28:31;;;;;;;1.10;0.73;;;27.50;84.00;;;;;;5011972;28;20187;-79
2023/06/16 08:30:56;;;;;;;0.63;0.50;;;27.10;84.60;;;;;;4994320;28;20697;-79
2023/06/16 08:33:22;;;;;;;0.47;0.47;;;26.70;82.80;;;;;;5011709;28;20261;-81
2023/06/16 08:35:48;;;;;;;0.43;0.43;;;26.90;82.50;;;;;;5012028;28;20202;-81
2023/06/16 08:38:13;;;;;;;11.13;1.38;;;27.40;82.60;;;;;;4990786;28;20673;-81
2023/06/16 08:40:39;;;;;;;0.82;0.75;;;27.50;79.80;;;;;;4990692;28;20322;-82
2023/06/16 08:43:13;;;;;;;0.77;0.68;;;27.80;80.80;;;;;;4992034;28;20578;-82
2023/06/16 08:45:45;;;;;;;0.75;0.75;;;27.80;78.70;;;;;;4990461;28;20221;-83
2023/06/16 08:48:11;;;;;;;0.60;0.47;;;27.80;76.50;;;;;;4989870;28;20612;-80
2023/06/16 08:50:38;;;;;;;0.73;0.60;;;27.70;75.00;;;;;;4991974;28;20195;-80
2023/06/16 08:53:08;;;;;;;0.85;0.60;;;27.20;77.70;;;;;;5001054;28;20657;-80
2023/06/16 08:55:37;;;;;;;11.43;0.88;;;26.90;78.40;;;;;;5011501;28;20190;-79
2023/06/16 08:58:06;;;;;;;0.60;0.32;;;26.70;82.60;;;;;;4993918;28;20218;-79
2023/06/16 09:00:33;;;;;;;9.38;1.02;;;26.70;82.20;;;;;;4993413;28;20527;-78
2023/06/16 09:02:59;;;;;;;2.25;1.25;;;27.00;80.80;;;;;;5011346;28;20222;-80
2023/06/16 09:05:26;;;;;;;0.68;0.68;;;27.50;79.20;;;;;;5011165;28;20539;-80
2023/06/16 09:07:52;;;;;;;3.03;0.90;;;28.10;76.30;;;;;;5011309;28;20194;-79
2023/06/16 09:10:19;;;;;;;1.73;0.75;;;28.70;75.70;;;;;;5011311;28;20664;-80
2023/06/16 09:12:50;;;;;;;3.92;0.80;;;29.40;77.70;;;;;;5011311;28;20711;-80
2023/06/16 09:15:16;;;;;;;0.90;0.90;;;29.50;76.80;;;;;;5009782;28;20827;-78
2023/06/16 09:17:42;;;;;;;1.40;0.98;;;29.60;79.40;;;;;;5011137;28;20256;-77
2023/06/16 09:20:23;;;;;;;0.70;0.70;;;29.80;72.40;;;;;;5011304;28;20480;-79
2023/06/16 09:22:59;;;;;;;1.45;1.10;;;29.50;73.20;;;;;;5011164;28;20558;-80
2023/06/16 09:25:25;;;;;;;1.20;0.80;;;29.50;75.00;;;;;;5011034;28;20687;-81
2023/06/16 09:27:51;;;;;;;1.90;1.17;;;29.80;77.80;;;;;;5010816;28;20191;-79
2023/06/16 09:30:20;;;;;;;0.63;0.50;;;30.30;72.40;;;;;;5011551;28;20186;-81
2023/06/16 09:32:47;;;;;;;0.77;0.73;;;30.40;69.50;;;;;;4996124;28;20574;-81
2023/06/16 09:35:19;;;;;;;1.00;0.70;;;30.50;69.10;;;;;;5010703;28;20666;-81
2023/06/16 09:37:49;;;;;;;0.45;0.45;;;30.90;70.50;;;;;;5009843;28;20194;-82
2023/06/16 09:40:16;;;;;;;0.65;0.65;;;31.30;69.40;;;;;;5009519;28;20202;-81
2023/06/16 09:42:44;;;;;;;0.63;0.60;;;31.40;67.50;;;;;;4993098;28;20201;-82
2023/06/16 09:45:12;;;;;;;1.08;0.85;;;31.70;70.20;;;;;;4993108;28;20238;-82
2023/06/16 09:47:43;;;;;;;0.52;0.52;;;31.60;70.90;;;;;;5010447;28;20195;-83
2023/06/16 09:50:13;;;;;;;0.40;0.32;;;31.90;70.70;;;;;;4993191;28;20194;-81
2023/06/16 09:52:41;;;;;;;0.90;0.82;;;32.00;64.10;;;;;;5010154;28;20186;-81
2023/06/16 09:55:07;;;;;;;1.35;0.90;;;32.10;70.10;;;;;;5010918;28;20189;-82
2023/06/16 09:57:33;;;;;;;0.68;0.68;;;32.30;68.20;;;;;;5010630;28;20301;-82
2023/06/16 09:59:59;;;;;;;1.65;1.13;;;32.30;66.60;;;;;;5009442;28;20290;-78
2023/06/16 10:02:27;;;;;;;0.52;0.45;;;32.50;64.20;;;;;;5010108;28;20230;-79
2023/06/16 10:04:55;;;;;;;1.20;0.75;;;32.70;64.30;;;;;;5009278;28;20552;-78
2023/06/16 10:07:21;;;;;;;0.70;0.65;;;32.30;65.50;;;;;;5010356;28;20202;-78
2023/06/16 10:09:50;;;;;;;2.33;1.30;;;31.90;64.10;;;;;;5010448;28;20186;-78
2023/06/16 10:12:18;;;;;;;0.55;0.43;;;31.80;68.50;;;;;;5012924;28;20269;-77
2023/06/16 10:14:45;;;;;;;0.75;0.68;;;31.60;62.70;;;;;;5014564;28;20273;-77
2023/06/16 10:17:13;;;;;;;2.55;1.20;;;31.40;68.30;;;;;;5013178;28;20205;-76
2023/06/16 10:19:44;;;;;;;0.93;0.77;;;31.30;63.90;;;;;;5014481;28;20202;-77
2023/06/16 10:22:11;;;;;;;2.63;0.90;;;31.10;67.60;;;;;;5013041;28;20193;-77
2023/06/16 10:24:39;;;;;;;1.17;0.80;;;31.60;67.30;;;;;;5003819;28;20285;-77
2023/06/16 10:27:07;;;;;;;1.38;0.98;;;32.30;63.20;;;;;;4994636;28;20230;-77
2023/06/16 10:29:34;;;;;;;0.50;0.40;;;32.90;62.20;;;;;;4995102;28;20270;-78
2023/06/16 10:32:07;;;;;;;1.35;0.70;;;33.40;59.60;;;;;;5014129;28;20209;-78
2023/06/16 10:34:38;;;;;;;0.35;0.35;;;32.70;61.50;;;;;;5014024;28;20198;-82
2023/06/16 10:37:04;;;;;;;0.63;0.63;;;32.40;59.90;;;;;;5012756;28;20225;-77
2023/06/16 10:39:40;;;;;;;3.83;1.65;;;32.50;62.00;;;;;;4996134;28;20206;-78
2023/06/16 10:42:11;;;;;;;1.30;0.65;;;32.50;59.10;;;;;;4996444;28;20549;-79
2023/06/16 10:44:37;;;;;;;0.40;0.40;;;32.70;61.20;;;;;;5013660;28;20201;-79
2023/06/16 10:47:09;;;;;;;1.85;0.77;;;33.10;62.70;;;;;;5013971;28;20250;-78
2023/06/16 10:49:51;;;;;;;0.63;0.55;;;33.20;61.40;;;;;;5012208;28;20612;-78
2023/06/16 10:52:17;;;;;;;1.45;0.90;;;33.50;62.20;;;;;;5013467;28;20182;-77
2023/06/16 10:54:45;;;;;;;0.50;0.50;;;33.30;60.00;;;;;;5013807;28;20303;-77
2023/06/16 10:57:12;;;;;;;1.08;0.95;;;33.00;59.90;;;;;;5013674;28;20226;-77
2023/06/16 11:00:13;;;;;;;1.02;0.93;;;33.10;64.30;;;;;;5013590;28;20712;-77
2023/06/16 11:02:50;;;;;;;3.55;0.65;;;33.20;61.10;;;;;;5013199;28;20227;-76
2023/06/16 11:05:18;;;;;;;0.85;0.52;;;32.60;60.00;;;;;;5013578;28;20229;-77
2023/06/16 11:08:02;;;;;;;1.17;0.80;;;32.80;62.00;;;;;;5013522;28;20688;-77
2023/06/16 11:10:28;;;;;;;0.73;0.70;;;33.60;62.00;;;;;;5012087;28;20198;-76
2023/06/16 11:12:54;;;;;;;1.08;0.90;;;33.70;58.60;;;;;;5012078;28;20201;-77
2023/06/16 11:15:20;;;;;;;2.88;0.82;;;33.50;58.20;;;;;;5013293;28;20201;-78
2023/06/16 11:17:49;;;;;;;1.30;0.68;;;33.90;59.50;;;;;;5013174;28;20669;-78
2023/06/16 11:20:16;;;;;;;0.77;0.77;;;33.40;59.90;;;;;;4994929;28;20847;-78
2023/06/16 11:22:45;;;;;;;2.25;0.85;;;33.00;58.70;;;;;;5013276;28;20350;-78
2023/06/16 11:25:12;;;;;;;0.50;0.50;;;33.20;59.50;;;;;;4998557;28;20209;-78
2023/06/16 11:27:38;;;;;;;1.17;0.80;;;33.30;61.60;;;;;;5008868;28;20215;-79
2023/06/16 11:30:08;;;;;;;1.45;1.00;;;33.20;60.30;;;;;;4995443;28;20210;-79
2023/06/16 11:32:36;;;;;;;1.13;0.90;;;33.10;59.90;;;;;;5012996;28;20673;-77
2023/06/16 11:35:03;;;;;;;0.40;0.40;;;33.40;59.60;;;;;;5013554;28;20257;-79
2023/06/16 11:37:50;;;;;;;1.02;0.90;;;33.50;58.20;;;;;;5012804;28;20198;-78
2023/06/16 11:40:27;;;;;;;2.80;0.77;;;33.80;57.70;;;;;;5012850;28;20248;-78
2023/06/16 11:43:01;;;;;;;0.85;0.68;;;33.80;58.30;;;;;;5012969;28;20190;-78
2023/06/16 11:45:46;;;;;;;0.50;0.50;;;33.50;58.00;;;;;;5012205;28;20205;-79
2023/06/16 11:48:13;;;;;;;2.88;1.08;;;33.50;57.20;;;;;;5012833;28;20566;-78
2023/06/16 11:50:39;;;;;;;0.68;0.65;;;33.50;58.60;;;;;;5012422;28;20788;-79
2023/06/16 11:53:05;;;;;;;0.70;0.52;;;33.50;58.70;;;;;;5012455;28;20249;-78
2023/06/16 11:55:31;;;;;;;1.23;0.93;;;33.50;57.40;;;;;;5012544;28;20217;-77
2023/06/16 11:57:57;;;;;;;0.73;0.63;;;33.50;57.00;;;;;;5012618;28;20274;-78
2023/06/16 12:00:23;;;;;;;0.73;0.63;;;33.90;57.20;;;;;;5012385;28;20288;-77
2023/06/16 12:02:50;;;;;;;0.50;0.50;;;33.20;54.60;;;;;;4994742;28;20284;-78
2023/06/16 12:05:30;;;;;;;10.75;0.85;;;33.20;55.80;;;;;;5010738;28;20234;-78
2023/06/16 12:07:56;;;;;;;0.52;0.52;;;32.50;53.00;;;;;;4994736;28;20249;-78
2023/06/16 12:10:25;;;;;;;0.90;0.60;;;32.50;57.90;;;;;;5012096;28;20684;-79
2023/06/16 12:12:51;;;;;;;0.95;0.65;;;32.90;54.90;;;;;;5012116;28;20182;-78
2023/06/16 12:15:19;;;;;;;0.63;0.63;;;33.00;51.50;;;;;;4994549;28;20202;-78
2023/06/16 12:17:47;;;;;;;0.50;0.47;;;33.00;54.70;;;;;;4994678;28;20709;-78
2023/06/16 12:20:13;;;;;;;0.50;0.43;;;33.80;54.00;;;;;;5012045;28;20202;-77
2023/06/16 12:22:39;;;;;;;0.88;0.68;;;34.40;54.60;;;;;;5011871;28;20600;-78
2023/06/16 12:25:13;;;;;;;0.43;0.43;;;34.80;54.60;;;;;;5011818;28;20206;-78
2023/06/16 12:27:51;;;;;;;0.65;0.50;;;34.90;53.90;;;;;;4994126;28;20190;-77
2023/06/16 12:30:18;;;;;;;1.20;0.93;;;34.80;53.90;;;;;;5010855;28;20285;-79
2023/06/16 12:32:45;;;;;;;2.03;0.68;;;34.70;52.00;;;;;;5011890;28;20194;-78
2023/06/16 12:35:11;;;;;;;0.70;0.60;;;35.20;50.70;;;;;;5011559;28;20269;-79
2023/06/16 12:37:41;;;;;;;1.42;0.90;;;34.80;49.00;;;;;;4994108;28;20736;-78
2023/06/16 12:40:08;;;;;;;0.75;0.73;;;34.30;54.80;;;;;;5011791;28;20231;-79
2023/06/16 12:42:35;;;;;;;0.90;0.65;;;34.20;57.90;;;;;;5010324;28;20229;-79
2023/06/16 12:45:02;;;;;;;1.77;1.23;;;34.20;57.30;;;;;;5009697;28;20206;-78
2023/06/16 12:47:29;;;;;;;1.88;1.13;;;33.80;58.00;;;;;;5010461;28;20296;-79